createdAt,value
2018-09-17T00:02:18.298Z,5.13
2018-09-17T00:04:46.502Z,4.80
2018-09-17T00:07:15.013Z,5.30
2018-09-17T00:09:43.080Z,5.20
2018-09-17T00:12:11.192Z,5.43
2018-09-17T00:14:39.359Z,5.03
2018-09-17T00:17:07.484Z,4.77
2018-09-17T00:19:35.819Z,5.07
2018-09-17T00:22:03.954Z,4.90
2018-09-17T00:24:32.028Z,5.53
2018-09-17T00:27:00.616Z,5.00
2018-09-17T00:29:28.684Z,5.40
2018-09-17T00:31:56.757Z,5.50
2018-09-17T00:34:25.995Z,5.27
2018-09-17T00:36:54.144Z,5.20
2018-09-17T00:39:22.260Z,5.43
2018-09-17T00:41:50.359Z,5.63
2018-09-17T00:44:18.485Z,5.70
2018-09-17T00:46:46.607Z,5.20
2018-09-17T00:49:14.703Z,5.37
2018-09-17T00:51:43.814Z,5.60
2018-09-17T00:54:11.874Z,5.20
2018-09-17T00:56:39.934Z,5.40
2018-09-17T00:59:08.041Z,5.70
2018-09-17T01:01:36.157Z,5.20
2018-09-17T01:04:04.252Z,6.00
2018-09-17T01:06:32.424Z,5.20
2018-09-17T01:09:00.577Z,4.73
2018-09-17T01:11:28.737Z,5.70
2018-09-17T01:13:56.810Z,5.50
2018-09-17T01:16:24.881Z,5.60
2018-09-17T01:18:53.010Z,6.13
2018-09-17T01:21:21.449Z,5.30
2018-09-17T01:23:49.543Z,5.40
2018-09-17T01:26:17.663Z,5.20
2018-09-17T01:28:45.785Z,5.80
2018-09-17T01:31:13.923Z,6.00
2018-09-17T01:33:42.044Z,5.43
2018-09-17T01:36:10.140Z,5.73
2018-09-17T01:38:38.308Z,5.23
2018-09-17T01:41:06.361Z,5.20
2018-09-17T01:43:34.425Z,5.60
2018-09-17T01:46:02.549Z,5.70
2018-09-17T01:48:30.679Z,5.50
2018-09-17T01:50:58.750Z,5.50
2018-09-17T01:53:26.844Z,5.27
2018-09-17T01:55:55.033Z,5.60
2018-09-17T01:58:23.146Z,5.67
2018-09-17T02:00:51.379Z,5.43
2018-09-17T02:03:19.479Z,5.20
2018-09-17T02:05:47.563Z,5.20
2018-09-17T02:08:15.657Z,5.77
2018-09-17T02:10:43.705Z,5.73
2018-09-17T02:13:11.816Z,6.67
2018-09-17T02:15:40.046Z,5.27
2018-09-17T02:18:08.142Z,5.83
2018-09-17T02:20:36.263Z,5.90
2018-09-17T02:23:04.408Z,5.80
2018-09-17T02:25:32.472Z,5.43
2018-09-17T02:28:00.692Z,5.47
2018-09-17T02:30:28.844Z,5.83
2018-09-17T02:32:56.970Z,6.33
2018-09-17T02:35:25.098Z,5.50
2018-09-17T02:37:53.183Z,6.17
2018-09-17T02:40:21.424Z,6.00
2018-09-17T02:42:50.560Z,5.87
2018-09-17T02:45:19.578Z,6.20
2018-09-17T02:47:47.697Z,6.30
2018-09-17T02:50:15.775Z,5.77
2018-09-17T02:52:43.917Z,6.03
2018-09-17T02:55:11.965Z,5.83
2018-09-17T02:57:40.058Z,6.43
2018-09-17T03:00:09.164Z,6.27
2018-09-17T03:02:37.686Z,6.30
2018-09-17T03:05:06.195Z,6.37
2018-09-17T03:07:34.257Z,6.00
2018-09-17T03:10:02.384Z,6.13
2018-09-17T03:12:30.488Z,6.60
2018-09-17T03:14:59.235Z,6.50
2018-09-17T03:17:27.316Z,6.40
2018-09-17T03:19:55.390Z,6.47
2018-09-17T03:22:24.303Z,6.10
2018-09-17T03:24:52.373Z,6.63
2018-09-17T03:27:20.555Z,6.20
2018-09-17T03:29:48.691Z,6.13
2018-09-17T03:32:16.820Z,6.63
2018-09-17T03:34:44.903Z,6.30
2018-09-17T03:37:12.983Z,5.80
2018-09-17T03:39:41.791Z,6.70
2018-09-17T03:42:09.882Z,6.13
2018-09-17T03:44:37.964Z,6.70
2018-09-17T03:47:06.076Z,6.60
2018-09-17T03:49:34.183Z,6.63
2018-09-17T03:52:02.391Z,6.83
2018-09-17T03:54:30.549Z,7.07
2018-09-17T03:56:58.609Z,7.00
2018-09-17T03:59:26.732Z,6.70
2018-09-17T04:01:54.847Z,6.53
2018-09-17T04:04:22.945Z,6.37
2018-09-17T04:06:57.850Z,6.57
2018-09-17T04:09:26.010Z,6.00
2018-09-17T04:11:54.066Z,6.30
2018-09-17T04:14:22.162Z,6.87
2018-09-17T04:16:50.278Z,6.60
2018-09-17T04:19:18.384Z,7.07
2018-09-17T04:21:46.480Z,6.27
2018-09-17T04:24:14.662Z,6.80
2018-09-17T04:26:42.758Z,6.60
2018-09-17T04:29:10.906Z,6.70
2018-09-17T04:31:39.003Z,7.03
2018-09-17T04:34:07.131Z,6.40
2018-09-17T04:36:35.222Z,6.80
2018-09-17T04:39:03.350Z,6.83
2018-09-17T04:41:31.503Z,6.80
2018-09-17T04:43:59.582Z,6.80
2018-09-17T04:46:27.695Z,6.77
2018-09-17T04:48:55.789Z,7.17
2018-09-17T04:51:23.925Z,6.90
2018-09-17T04:53:52.036Z,6.93
2018-09-17T04:56:20.079Z,6.73
2018-09-17T04:58:48.434Z,7.00
2018-09-17T05:01:16.524Z,7.57
2018-09-17T05:03:44.675Z,7.20
2018-09-17T05:06:12.988Z,7.60
2018-09-17T05:08:41.122Z,7.60
2018-09-17T05:11:09.296Z,7.57
2018-09-17T05:13:37.488Z,7.53
2018-09-17T05:16:05.575Z,7.73
2018-09-17T05:18:33.650Z,7.60
2018-09-17T05:21:02.102Z,8.20
2018-09-17T05:23:30.275Z,7.03
2018-09-17T05:25:58.360Z,7.10
2018-09-17T05:28:26.567Z,7.27
2018-09-17T05:30:54.708Z,7.33
2018-09-17T05:33:23.201Z,7.10
2018-09-17T05:35:51.369Z,7.70
2018-09-17T05:38:19.471Z,7.37
2018-09-17T05:40:47.585Z,7.40
2018-09-17T05:43:15.707Z,7.53
2018-09-17T05:45:43.854Z,7.30
2018-09-17T05:48:12.221Z,7.70
2018-09-17T05:50:40.289Z,6.97
2018-09-17T05:53:08.837Z,7.10
2018-09-17T05:55:36.916Z,7.13
2018-09-17T05:58:05.340Z,7.27
2018-09-17T06:00:34.552Z,7.70
2018-09-17T06:03:02.696Z,7.40
2018-09-17T06:05:30.911Z,7.03
2018-09-17T06:07:59.242Z,6.43
2018-09-17T06:10:27.800Z,6.87
2018-09-17T06:12:55.954Z,7.30
2018-09-17T06:15:24.110Z,6.63
2018-09-17T06:17:53.090Z,7.60
2018-09-17T06:20:22.035Z,7.00
2018-09-17T06:22:50.203Z,6.47
2018-09-17T06:25:18.519Z,6.53
2018-09-17T06:27:46.643Z,7.13
2018-09-17T06:30:14.810Z,7.37
2018-09-17T06:32:42.955Z,6.63
2018-09-17T06:35:11.046Z,6.27
2018-09-17T06:37:39.180Z,6.33
2018-09-17T06:40:07.248Z,6.60
2018-09-17T06:42:35.367Z,6.77
2018-09-17T06:45:03.571Z,8.10
2018-09-17T06:47:31.710Z,7.73
2018-09-17T06:49:59.783Z,7.40
2018-09-17T06:52:27.984Z,7.33
2018-09-17T06:54:56.095Z,7.43
2018-09-17T06:57:24.255Z,7.20
2018-09-17T06:59:52.403Z,6.90
2018-09-17T07:02:20.487Z,5.97
2018-09-17T07:04:48.648Z,6.57
2018-09-17T07:07:16.802Z,6.83
2018-09-17T07:09:45.108Z,6.43
2018-09-17T07:12:13.227Z,6.10
2018-09-17T07:14:41.281Z,6.60
2018-09-17T07:17:10.063Z,6.47
2018-09-17T07:19:38.185Z,6.40
2018-09-17T07:22:06.258Z,5.60
2018-09-17T07:24:34.423Z,6.03
2018-09-17T07:27:09.730Z,5.93
2018-09-17T07:29:38.768Z,6.30
2018-09-17T07:32:06.900Z,8.07
2018-09-17T07:34:35.466Z,6.10
2018-09-17T07:37:04.379Z,6.10
2018-09-17T07:39:33.453Z,5.80
2018-09-17T07:42:01.758Z,5.60
2018-09-17T07:44:29.876Z,6.10
2018-09-17T07:46:58.682Z,6.13
2018-09-17T07:49:26.861Z,4.97
2018-09-17T07:51:55.028Z,6.23
2018-09-17T07:54:23.586Z,5.47
2018-09-17T07:56:51.757Z,6.50
2018-09-17T07:59:20.338Z,6.23
2018-09-17T08:01:48.474Z,6.20
2018-09-17T08:04:16.601Z,5.47
2018-09-17T08:06:44.784Z,6.20
2018-09-17T08:09:14.300Z,5.70
2018-09-17T08:11:43.299Z,5.77
2018-09-17T08:14:12.189Z,5.80
2018-09-17T08:16:40.354Z,5.97
2018-09-17T08:19:08.475Z,6.13
2018-09-17T08:21:36.558Z,5.90
2018-09-17T08:24:04.931Z,5.70
2018-09-17T08:26:33.514Z,5.87
2018-09-17T08:29:01.787Z,6.97
2018-09-17T08:31:30.015Z,5.90
2018-09-17T08:33:58.450Z,5.83
2018-09-17T08:36:26.559Z,5.53
2018-09-17T08:38:54.895Z,5.07
2018-09-17T08:41:23.599Z,5.23
2018-09-17T08:43:51.712Z,5.70
2018-09-17T08:46:19.798Z,5.60
2018-09-17T08:48:47.929Z,5.20
2018-09-17T08:51:16.120Z,4.97
2018-09-17T08:53:44.267Z,4.60
2018-09-17T08:56:17.893Z,5.77
2018-09-17T08:58:51.507Z,4.73
2018-09-17T09:01:25.073Z,5.17
2018-09-17T09:03:58.793Z,4.10
2018-09-17T09:06:32.320Z,4.73
2018-09-17T09:09:01.049Z,3.93
2018-09-17T09:11:34.712Z,3.90
2018-09-17T09:14:09.502Z,4.10
2018-09-17T09:16:37.776Z,3.77
2018-09-17T09:19:11.610Z,4.10
2018-09-17T09:21:39.772Z,4.13
2018-09-17T09:24:07.895Z,4.33
2018-09-17T09:26:36.106Z,3.50
2018-09-17T09:29:04.251Z,5.10
2018-09-17T09:31:32.498Z,4.97
2018-09-17T09:34:00.552Z,3.37
2018-09-17T09:36:28.723Z,3.80
2018-09-17T09:38:57.479Z,3.20
2018-09-17T09:41:25.594Z,3.87
2018-09-17T09:43:53.675Z,3.60
2018-09-17T09:46:21.778Z,3.53
2018-09-17T09:48:49.914Z,3.63
2018-09-17T09:51:18.076Z,5.17
2018-09-17T09:53:46.182Z,4.67
2018-09-17T09:56:14.230Z,5.10
2018-09-17T09:58:42.505Z,3.63
2018-09-17T10:01:16.009Z,2.87
2018-09-17T10:03:45.058Z,3.00
2018-09-17T10:06:15.317Z,2.90
2018-09-17T10:08:48.940Z,3.20
2018-09-17T10:12:26.268Z,2.70
2018-09-17T10:15:00.125Z,2.70
2018-09-17T10:17:33.764Z,2.33
2018-09-17T10:20:01.886Z,2.73
2018-09-17T10:22:30.101Z,2.03
2018-09-17T10:24:58.229Z,2.80
2018-09-17T10:27:26.429Z,2.23
2018-09-17T10:29:54.681Z,2.47
2018-09-17T10:32:22.819Z,2.20
2018-09-17T10:34:50.946Z,2.50
2018-09-17T10:37:19.109Z,2.53
2018-09-17T10:39:47.220Z,2.80
2018-09-17T10:42:15.967Z,2.50
2018-09-17T10:44:44.041Z,2.53
2018-09-17T10:47:12.110Z,2.03
2018-09-17T10:49:40.232Z,2.13
2018-09-17T10:52:08.353Z,3.30
2018-09-17T10:54:36.469Z,3.63
2018-09-17T10:57:05.227Z,2.00
2018-09-17T10:59:33.335Z,2.43
2018-09-17T11:02:01.474Z,2.30
2018-09-17T11:04:29.574Z,2.83
2018-09-17T11:06:58.412Z,2.90
2018-09-17T11:09:26.507Z,4.07
2018-09-17T11:11:54.615Z,2.10
2018-09-17T11:14:22.719Z,2.30
2018-09-17T11:16:50.951Z,2.40
2018-09-17T11:19:19.851Z,3.57
2018-09-17T11:21:48.063Z,2.63
2018-09-17T11:24:16.521Z,2.90
2018-09-17T11:26:44.798Z,2.83
2018-09-17T11:29:13.078Z,2.03
2018-09-17T11:31:41.306Z,2.87
2018-09-17T11:34:09.965Z,2.20
2018-09-17T11:36:38.126Z,2.73
2018-09-17T11:39:07.822Z,2.23
2018-09-17T11:41:35.949Z,2.10
2018-09-17T11:44:05.680Z,2.20
2018-09-17T11:46:33.811Z,1.80
2018-09-17T11:49:01.940Z,1.97
2018-09-17T11:51:30.137Z,2.00
2018-09-17T11:53:58.250Z,1.90
2018-09-17T11:56:26.443Z,2.23
2018-09-17T11:58:54.519Z,3.43
2018-09-17T12:01:35.115Z,2.07
2018-09-17T12:04:09.682Z,2.17
2018-09-17T12:06:43.324Z,2.37
2018-09-17T12:09:12.657Z,2.40
2018-09-17T12:11:41.241Z,2.87
2018-09-17T12:14:09.472Z,1.80
2018-09-17T12:16:37.618Z,2.20
2018-09-17T12:19:06.119Z,2.17
2018-09-17T12:21:34.223Z,2.20
2018-09-17T12:24:03.230Z,2.47
2018-09-17T12:26:31.615Z,1.50
2018-09-17T12:29:00.045Z,2.20
2018-09-17T12:31:28.733Z,2.23
2018-09-17T12:33:57.373Z,2.70
2018-09-17T12:36:25.921Z,2.03
2018-09-17T12:38:54.615Z,2.37
2018-09-17T12:41:23.112Z,2.40
2018-09-17T12:43:51.689Z,2.80
2018-09-17T12:46:20.168Z,2.27
2018-09-17T12:48:49.753Z,2.30
2018-09-17T12:51:18.216Z,2.00
2018-09-17T12:53:46.695Z,2.13
2018-09-17T12:56:15.219Z,2.10
2018-09-17T12:58:44.367Z,2.30
2018-09-17T13:01:13.368Z,2.13
2018-09-17T13:03:43.832Z,2.03
2018-09-17T13:06:13.901Z,2.47
2018-09-17T13:08:42.783Z,2.37
2018-09-17T13:11:11.590Z,2.67
2018-09-17T13:13:40.544Z,2.43
2018-09-17T13:16:11.340Z,1.93
2018-09-17T13:18:39.813Z,1.90
2018-09-17T13:21:08.361Z,2.30
2018-09-17T13:23:36.864Z,2.20
2018-09-17T13:26:05.440Z,2.63
2018-09-17T13:28:33.796Z,2.60
2018-09-17T13:31:02.131Z,2.17
2018-09-17T13:33:30.554Z,2.10
2018-09-17T13:35:58.961Z,2.63
2018-09-17T13:38:27.310Z,2.23
2018-09-17T13:40:55.903Z,2.43
2018-09-17T13:43:24.283Z,2.70
2018-09-17T13:45:52.755Z,2.40
2018-09-17T13:48:21.155Z,2.80
2018-09-17T13:50:49.605Z,2.70
2018-09-17T13:53:18.072Z,2.47
2018-09-17T13:55:46.488Z,2.40
2018-09-17T13:58:15.035Z,2.30
2018-09-17T14:00:43.594Z,3.30
2018-09-17T14:03:11.976Z,2.70
2018-09-17T14:05:40.343Z,2.70
2018-09-17T14:08:08.783Z,2.70
2018-09-17T14:10:37.196Z,2.70
2018-09-17T14:13:05.642Z,2.73
2018-09-17T14:15:34.078Z,2.60
2018-09-17T14:18:02.531Z,2.70
2018-09-17T14:20:31.040Z,3.00
2018-09-17T14:22:59.567Z,2.77
2018-09-17T14:25:28.023Z,3.43
2018-09-17T14:27:56.409Z,2.73
2018-09-17T14:30:24.883Z,2.60
2018-09-17T14:32:58.759Z,2.80
2018-09-17T14:35:27.267Z,2.17
2018-09-17T14:37:55.717Z,2.50
2018-09-17T14:40:24.861Z,2.53
2018-09-17T14:42:53.327Z,2.20
2018-09-17T14:45:22.033Z,3.37
2018-09-17T14:47:50.446Z,3.20
2018-09-17T14:50:18.818Z,2.67
2018-09-17T14:52:47.162Z,3.10
2018-09-17T14:55:15.583Z,2.87
2018-09-17T14:57:43.978Z,2.73
2018-09-17T15:00:12.891Z,2.83
2018-09-17T15:02:41.415Z,2.30
2018-09-17T15:05:09.875Z,2.40
2018-09-17T15:07:38.337Z,2.63
2018-09-17T15:10:06.769Z,2.27
2018-09-17T15:12:35.621Z,2.00
2018-09-17T15:15:04.064Z,2.37
2018-09-17T15:17:32.431Z,3.10
2018-09-17T15:20:00.888Z,2.70
2018-09-17T15:22:29.988Z,3.20
2018-09-17T15:24:58.298Z,2.50
2018-09-17T15:27:28.724Z,2.50
2018-09-17T15:29:57.484Z,2.20
2018-09-17T15:32:26.265Z,2.63
2018-09-17T15:34:54.594Z,2.20
2018-09-17T15:37:22.949Z,3.20
2018-09-17T15:39:51.310Z,2.50
2018-09-17T15:42:20.195Z,2.30
2018-09-17T15:44:48.944Z,2.07
2018-09-17T15:47:17.880Z,2.40
2018-09-17T15:49:46.434Z,2.40
2018-09-17T15:52:14.881Z,3.07
2018-09-17T15:54:43.376Z,2.23
2018-09-17T15:57:11.855Z,2.33
2018-09-17T15:59:40.249Z,2.47
2018-09-17T16:02:08.773Z,3.37
2018-09-17T16:04:37.083Z,3.30
2018-09-17T16:07:05.488Z,3.17
2018-09-17T16:09:33.971Z,2.60
2018-09-17T16:12:02.347Z,3.60
2018-09-17T16:14:30.530Z,3.43
2018-09-17T16:16:58.985Z,3.23
2018-09-17T16:19:27.381Z,3.10
2018-09-17T16:21:55.827Z,2.93
2018-09-17T16:24:24.313Z,3.63
2018-09-17T16:29:58.187Z,3.80
2018-09-17T16:32:26.598Z,4.13
2018-09-17T16:34:57.013Z,6.13
2018-09-17T16:37:25.395Z,4.93
2018-09-17T16:39:53.690Z,3.77
2018-09-17T16:42:22.070Z,4.43
2018-09-17T16:44:50.480Z,4.00
2018-09-17T16:47:18.621Z,5.27
2018-09-17T16:49:47.381Z,4.90
2018-09-17T16:52:15.528Z,6.17
2018-09-17T16:54:43.657Z,5.23
2018-09-17T16:57:11.733Z,6.30
2018-09-17T16:59:39.867Z,6.20
2018-09-17T17:02:08.053Z,6.23
2018-09-17T17:04:36.151Z,6.03
2018-09-17T17:07:04.408Z,6.03
2018-09-17T17:09:32.644Z,6.47
2018-09-17T17:12:01.106Z,6.60
2018-09-17T17:14:29.152Z,7.00
2018-09-17T17:16:57.302Z,6.60
2018-09-17T17:19:25.527Z,7.57
2018-09-17T17:21:53.729Z,7.97
2018-09-17T17:24:21.870Z,7.10
2018-09-17T17:26:49.903Z,7.80
2018-09-17T17:29:18.113Z,7.33
2018-09-17T17:31:46.327Z,6.97
2018-09-17T17:34:14.544Z,7.17
2018-09-17T17:36:42.729Z,7.07
2018-09-17T17:39:12.551Z,8.17
2018-09-17T17:41:40.751Z,8.50
2018-09-17T17:44:08.984Z,8.83
2018-09-17T17:46:38.022Z,8.83
2018-09-17T17:49:06.165Z,9.13
2018-09-17T17:51:34.370Z,10.93
2018-09-17T17:54:02.473Z,10.67
2018-09-17T17:56:30.615Z,10.70
2018-09-17T17:58:58.668Z,10.07
2018-09-17T18:01:26.953Z,11.23
2018-09-17T18:03:55.043Z,10.10
2018-09-17T18:06:23.278Z,10.90
2018-09-17T18:08:51.442Z,11.10
2018-09-17T18:11:19.532Z,10.67
2018-09-17T18:13:48.038Z,12.17
2018-09-17T18:16:16.299Z,10.93
2018-09-17T18:18:44.391Z,9.80
2018-09-17T18:21:12.624Z,9.73
2018-09-17T18:23:40.713Z,10.07
2018-09-17T18:26:08.904Z,9.27
2018-09-17T18:28:38.156Z,9.57
2018-09-17T18:31:07.594Z,9.73
2018-09-17T18:33:35.966Z,11.20
2018-09-17T18:36:04.050Z,12.23
2018-09-17T18:38:32.328Z,10.43
2018-09-17T18:41:00.480Z,11.80
2018-09-17T18:43:28.678Z,11.23
2018-09-17T18:45:56.861Z,12.97
2018-09-17T18:48:25.048Z,11.03
2018-09-17T18:50:53.136Z,11.70
2018-09-17T18:53:21.276Z,12.50
2018-09-17T18:55:49.318Z,11.67
2018-09-17T18:58:17.391Z,11.20
2018-09-17T19:00:46.449Z,11.63
2018-09-17T19:03:14.973Z,10.70
2018-09-17T19:05:43.949Z,12.40
2018-09-17T19:08:12.168Z,12.03
2018-09-17T19:10:40.285Z,12.60
2018-09-17T19:13:08.852Z,13.47
2018-09-17T19:15:43.260Z,13.63
2018-09-17T19:18:16.631Z,13.10
2018-09-17T19:20:45.687Z,12.20
2018-09-17T19:23:19.378Z,14.30
2018-09-17T19:25:47.829Z,13.93
2018-09-17T19:28:21.491Z,14.10
2018-09-17T19:30:50.854Z,15.77
2018-09-17T19:33:19.015Z,17.03
2018-09-17T19:35:47.199Z,17.17
2018-09-17T19:38:20.877Z,16.50
2018-09-17T19:40:48.963Z,18.23
2018-09-17T19:43:17.163Z,16.80
2018-09-17T19:45:50.848Z,18.40
2018-09-17T19:48:20.128Z,17.33
2018-09-17T19:50:54.457Z,15.13
2018-09-17T19:53:22.663Z,13.80
2018-09-17T19:55:50.915Z,13.43
2018-09-17T19:58:25.006Z,12.93
2018-09-17T20:00:53.185Z,12.30
2018-09-17T20:03:21.477Z,12.20
2018-09-17T20:05:54.981Z,11.07
2018-09-17T20:08:23.191Z,11.80
2018-09-17T20:10:51.311Z,12.40
2018-09-17T20:13:20.499Z,12.87
2018-09-17T20:15:48.696Z,11.73
2018-09-17T20:18:19.763Z,11.10
2018-09-17T20:20:48.198Z,10.57
2018-09-17T20:23:17.930Z,11.13
2018-09-17T20:25:50.647Z,12.50
2018-09-17T20:28:19.089Z,12.17
2018-09-17T20:31:00.085Z,12.77
2018-09-17T20:33:35.505Z,12.90
2018-09-17T20:36:05.586Z,12.17
2018-09-17T20:38:33.771Z,14.00
2018-09-17T20:41:01.899Z,14.70
2018-09-17T20:43:30.658Z,12.77
2018-09-17T20:45:58.880Z,11.37
2018-09-17T20:48:27.055Z,11.87
2018-09-17T20:50:55.192Z,12.63
2018-09-17T20:53:23.558Z,11.90
2018-09-17T20:55:51.631Z,11.00
2018-09-17T20:58:19.874Z,11.00
2018-09-17T21:00:48.193Z,11.30
2018-09-17T21:03:16.556Z,11.10
2018-09-17T21:05:44.658Z,11.77
2018-09-17T21:08:12.827Z,11.30
2018-09-17T21:10:40.987Z,11.83
2018-09-17T21:13:09.191Z,12.30
2018-09-17T21:15:37.389Z,11.67
2018-09-17T21:18:05.590Z,10.90
2018-09-17T21:20:33.720Z,10.60
2018-09-17T21:23:02.643Z,11.47
2018-09-17T21:25:30.849Z,11.30
2018-09-17T21:27:59.090Z,10.73
2018-09-17T21:30:27.272Z,11.13
2018-09-17T21:32:55.344Z,12.03
2018-09-17T21:35:23.486Z,12.00
2018-09-17T21:37:51.646Z,11.63
2018-09-17T21:40:19.720Z,11.40
2018-09-17T21:42:47.828Z,11.03
2018-09-17T21:45:16.143Z,11.23
2018-09-17T21:47:44.304Z,11.27
2018-09-17T21:50:12.512Z,11.60
2018-09-17T21:52:40.608Z,11.20
2018-09-17T21:55:08.978Z,11.60
2018-09-17T21:57:37.187Z,11.87
2018-09-17T22:00:05.356Z,11.90
2018-09-17T22:02:33.559Z,11.87
2018-09-17T22:05:01.766Z,11.37
2018-09-17T22:07:29.921Z,11.37
2018-09-17T22:09:58.089Z,11.00
2018-09-17T22:12:26.249Z,11.10
2018-09-17T22:14:54.402Z,10.63
2018-09-17T22:17:22.610Z,10.63
2018-09-17T22:19:50.911Z,9.83
2018-09-17T22:22:19.002Z,9.97
2018-09-17T22:24:47.985Z,10.40
2018-09-17T22:27:16.344Z,10.27
2018-09-17T22:29:44.484Z,9.10
2018-09-17T22:32:12.654Z,9.67
2018-09-17T22:34:40.783Z,9.87
2018-09-17T22:37:09.581Z,9.17
2018-09-17T22:39:37.794Z,8.40
2018-09-17T22:42:06.524Z,9.00
2018-09-17T22:44:34.587Z,9.23
2018-09-17T22:47:02.678Z,8.97
2018-09-17T22:49:30.950Z,8.50
2018-09-17T22:51:59.133Z,7.87
2018-09-17T22:54:27.891Z,7.93
2018-09-17T22:56:56.022Z,7.67
2018-09-17T22:59:24.821Z,8.20
2018-09-17T23:01:52.966Z,7.40
2018-09-17T23:04:22.440Z,6.93
2018-09-17T23:06:50.675Z,7.07
2018-09-17T23:09:18.905Z,6.90
2018-09-17T23:11:47.171Z,6.40
2018-09-17T23:14:15.390Z,6.50
2018-09-17T23:16:43.542Z,6.20
2018-09-17T23:19:12.750Z,6.53
2018-09-17T23:21:40.981Z,6.00
2018-09-17T23:24:09.132Z,5.77
2018-09-17T23:26:37.326Z,6.07
2018-09-17T23:29:05.642Z,6.10
2018-09-17T23:31:33.857Z,6.37
2018-09-17T23:34:02.043Z,6.47
2018-09-17T23:36:30.216Z,6.40
2018-09-17T23:38:58.338Z,5.70
2018-09-17T23:41:27.344Z,5.30
2018-09-17T23:43:55.454Z,6.00
2018-09-17T23:46:23.637Z,6.07
2018-09-17T23:48:51.764Z,5.60
2018-09-17T23:51:19.820Z,5.77
2018-09-17T23:53:47.953Z,5.67
2018-09-17T23:56:16.255Z,6.00
2018-09-17T23:58:44.350Z,6.07
